createdAt,value
2023-11-22T00:00:31.875Z,9.67
2023-11-22T00:01:35.120Z,9.67
2023-11-22T00:02:31.916Z,9.73
2023-11-22T00:03:31.881Z,9.74
2023-11-22T00:04:31.842Z,9.79
2023-11-22T00:05:31.877Z,9.68
2023-11-22T00:06:31.805Z,10.08
2023-11-22T00:07:31.796Z,9.97
2023-11-22T00:08:31.841Z,9.63
2023-11-22T00:09:31.773Z,9.64
2023-11-22T00:10:31.768Z,9.73
2023-11-22T00:11:31.780Z,9.53
2023-11-22T00:12:31.740Z,9.70
2023-11-22T00:13:31.733Z,9.60
2023-11-22T00:14:31.776Z,9.74
2023-11-22T00:15:31.726Z,9.63
2023-11-22T00:16:31.699Z,9.73
2023-11-22T00:17:31.843Z,9.63
2023-11-22T00:18:37.726Z,9.64
2023-11-22T00:19:31.818Z,9.74
2023-11-22T00:20:31.701Z,9.38
2023-11-22T00:21:31.660Z,9.65
2023-11-22T00:22:31.634Z,9.38
2023-11-22T00:23:31.704Z,9.41
2023-11-22T00:24:31.618Z,9.41
2023-11-22T00:25:31.808Z,9.46
2023-11-22T00:26:31.640Z,9.50
2023-11-22T00:27:31.580Z,9.31
2023-11-22T00:28:31.571Z,9.12
2023-11-22T00:29:31.584Z,9.17
2023-11-22T00:30:31.556Z,8.87
2023-11-22T00:31:31.535Z,8.99
2023-11-22T00:32:31.613Z,9.27
2023-11-22T00:33:31.544Z,9.16
2023-11-22T00:34:31.513Z,9.01
2023-11-22T00:35:31.595Z,8.70
2023-11-22T00:36:31.698Z,8.96
2023-11-22T00:37:31.486Z,8.66
2023-11-22T00:38:31.519Z,8.84
2023-11-22T00:39:31.447Z,8.59
2023-11-22T00:40:31.443Z,8.71
2023-11-22T00:41:31.493Z,8.52
2023-11-22T00:42:31.422Z,8.63
2023-11-22T00:43:31.408Z,8.29
2023-11-22T00:44:31.469Z,8.32
2023-11-22T00:45:31.401Z,8.38
2023-11-22T00:46:31.457Z,8.15
2023-11-22T00:47:31.460Z,8.17
2023-11-22T00:48:31.361Z,8.21
2023-11-22T00:49:31.370Z,8.21
2023-11-22T00:50:31.363Z,8.06
2023-11-22T00:51:31.338Z,8.37
2023-11-22T00:52:31.323Z,8.18
2023-11-22T00:53:31.348Z,7.94
2023-11-22T00:54:31.318Z,8.15
2023-11-22T00:55:31.285Z,8.15
2023-11-22T00:56:31.339Z,8.07
2023-11-22T00:57:31.314Z,8.21
2023-11-22T00:58:31.245Z,8.24
2023-11-22T00:59:31.288Z,8.25
2023-11-22T01:00:31.223Z,8.44
2023-11-22T01:01:31.290Z,8.19
2023-11-22T01:02:31.398Z,8.17
2023-11-22T01:03:31.243Z,7.96
2023-11-22T01:04:31.190Z,7.99
2023-11-22T01:05:31.270Z,8.06
2023-11-22T01:06:31.162Z,8.14
2023-11-22T01:07:31.154Z,8.18
2023-11-22T01:08:37.164Z,8.19
2023-11-22T01:09:31.138Z,7.73
2023-11-22T01:10:37.142Z,8.01
2023-11-22T01:11:31.147Z,8.21
2023-11-22T01:12:31.140Z,8.01
2023-11-22T01:13:31.120Z,8.06
2023-11-22T01:14:37.108Z,8.15
2023-11-22T01:15:31.075Z,8.01
2023-11-22T01:16:31.056Z,8.10
2023-11-22T01:17:31.127Z,8.06
2023-11-22T01:18:31.118Z,7.68
2023-11-22T01:19:31.020Z,7.92
2023-11-22T01:20:31.060Z,7.78
2023-11-22T01:21:31.029Z,7.71
2023-11-22T01:22:30.993Z,7.81
2023-11-22T01:23:31.029Z,7.68
2023-11-22T01:24:30.976Z,7.92
2023-11-22T01:25:30.967Z,7.76
2023-11-22T01:26:30.995Z,7.78
2023-11-22T01:27:30.938Z,7.70
2023-11-22T01:28:30.934Z,7.89
2023-11-22T01:29:31.008Z,7.81
2023-11-22T01:30:30.910Z,7.78
2023-11-22T01:31:30.961Z,7.66
2023-11-22T01:32:30.941Z,7.70
2023-11-22T01:33:30.886Z,7.79
2023-11-22T01:34:30.865Z,7.76
2023-11-22T01:35:30.891Z,7.71
2023-11-22T01:36:30.844Z,7.70
2023-11-22T01:37:30.858Z,7.68
2023-11-22T01:38:30.860Z,7.70
2023-11-22T01:39:36.831Z,7.58
2023-11-22T01:40:30.806Z,7.61
2023-11-22T01:41:30.795Z,7.55
2023-11-22T01:42:30.778Z,7.89
2023-11-22T01:43:30.773Z,7.63
2023-11-22T01:44:30.824Z,7.68
2023-11-22T01:45:30.749Z,7.64
2023-11-22T01:46:30.770Z,7.52
2023-11-22T01:47:30.799Z,7.17
2023-11-22T01:48:30.717Z,7.10
2023-11-22T01:49:30.706Z,7.30
2023-11-22T01:50:30.726Z,7.48
2023-11-22T01:51:30.684Z,7.46
2023-11-22T01:52:30.680Z,7.28
2023-11-22T01:53:30.700Z,7.21
2023-11-22T01:54:30.660Z,7.03
2023-11-22T01:55:30.641Z,6.98
2023-11-22T01:56:30.713Z,6.88
2023-11-22T01:57:30.620Z,6.94
2023-11-22T01:58:30.612Z,7.05
2023-11-22T01:59:30.639Z,7.06
2023-11-22T02:00:30.587Z,6.87
2023-11-22T02:01:30.582Z,7.07
2023-11-22T02:02:30.732Z,7.03
2023-11-22T02:03:30.759Z,6.90
2023-11-22T02:04:30.616Z,6.69
2023-11-22T02:05:30.580Z,6.75
2023-11-22T02:06:30.536Z,6.69
2023-11-22T02:07:30.513Z,6.76
2023-11-22T02:08:30.631Z,6.98
2023-11-22T02:09:30.516Z,6.55
2023-11-22T02:10:30.488Z,6.54
2023-11-22T02:11:30.493Z,6.43
2023-11-22T02:12:30.460Z,6.32
2023-11-22T02:13:30.450Z,6.47
2023-11-22T02:14:30.461Z,6.39
2023-11-22T02:15:30.426Z,6.17
2023-11-22T02:16:36.449Z,6.15
2023-11-22T02:17:30.466Z,5.97
2023-11-22T02:18:30.432Z,6.21
2023-11-22T02:19:30.387Z,6.03
2023-11-22T02:20:36.598Z,5.93
2023-11-22T02:21:30.381Z,5.91
2023-11-22T02:22:30.367Z,5.94
2023-11-22T02:23:30.367Z,5.50
2023-11-22T02:24:30.328Z,5.74
2023-11-22T02:25:30.348Z,5.67
2023-11-22T02:26:30.331Z,5.74
2023-11-22T02:27:30.302Z,5.60
2023-11-22T02:28:30.290Z,5.48
2023-11-22T02:29:30.311Z,5.61
2023-11-22T02:30:30.269Z,5.60
2023-11-22T02:31:30.266Z,5.48
2023-11-22T02:32:30.298Z,5.53
2023-11-22T02:33:30.236Z,5.54
2023-11-22T02:34:30.251Z,5.41
2023-11-22T02:35:30.287Z,5.27
2023-11-22T02:36:30.210Z,5.03
2023-11-22T02:37:30.193Z,5.26
2023-11-22T02:38:30.267Z,5.27
2023-11-22T02:39:30.182Z,5.03
2023-11-22T02:40:30.164Z,5.03
2023-11-22T02:41:30.236Z,4.96
2023-11-22T02:42:30.147Z,4.93
2023-11-22T02:43:30.132Z,4.93
2023-11-22T02:44:30.167Z,4.93
2023-11-22T02:45:30.119Z,5.12
2023-11-22T02:46:30.150Z,4.85
2023-11-22T02:47:30.170Z,4.85
2023-11-22T02:48:30.087Z,4.90
2023-11-22T02:49:30.078Z,4.96
2023-11-22T02:50:30.123Z,4.93
2023-11-22T02:51:30.067Z,5.08
2023-11-22T02:52:30.034Z,5.03
2023-11-22T02:53:30.070Z,4.99
2023-11-22T02:54:30.015Z,5.11
2023-11-22T02:55:30.013Z,5.09
2023-11-22T02:56:30.029Z,4.99
2023-11-22T02:57:30.008Z,5.08
2023-11-22T02:58:30.038Z,5.05
2023-11-22T02:59:29.989Z,5.03
2023-11-22T03:00:29.948Z,5.11
2023-11-22T03:01:29.981Z,5.03
2023-11-22T03:02:29.974Z,4.78
2023-11-22T03:03:30.020Z,4.77
2023-11-22T03:04:29.909Z,4.69
2023-11-22T03:05:29.979Z,4.77
2023-11-22T03:06:29.893Z,4.77
2023-11-22T03:07:29.880Z,4.72
2023-11-22T03:08:29.906Z,4.88
2023-11-22T03:09:29.854Z,4.90
2023-11-22T03:10:29.854Z,4.77
2023-11-22T03:11:29.889Z,5.02
2023-11-22T03:12:29.831Z,4.80
2023-11-22T03:13:29.849Z,4.81
2023-11-22T03:14:29.810Z,4.58
2023-11-22T03:15:29.788Z,4.80
2023-11-22T03:16:29.799Z,4.59
2023-11-22T03:17:29.821Z,4.65
2023-11-22T03:18:29.761Z,4.66
2023-11-22T03:19:29.757Z,4.67
2023-11-22T03:20:29.954Z,4.47
2023-11-22T03:21:29.732Z,4.65
2023-11-22T03:22:29.724Z,4.32
2023-11-22T03:23:29.758Z,4.30
2023-11-22T03:24:29.701Z,4.32
2023-11-22T03:25:29.697Z,4.45
2023-11-22T03:26:29.715Z,4.29
2023-11-22T03:27:29.675Z,4.42
2023-11-22T03:28:29.661Z,4.42
2023-11-22T03:29:29.708Z,4.40
2023-11-22T03:30:29.638Z,4.15
2023-11-22T03:31:29.648Z,4.63
2023-11-22T03:32:29.750Z,4.34
2023-11-22T03:33:29.619Z,4.32
2023-11-22T03:34:29.609Z,3.93
2023-11-22T03:35:29.598Z,3.87
2023-11-22T03:36:29.595Z,3.90
2023-11-22T03:37:29.568Z,3.65
2023-11-22T03:38:29.580Z,3.56
2023-11-22T03:39:29.540Z,3.49
2023-11-22T03:40:29.534Z,3.47
2023-11-22T03:41:29.573Z,3.23
2023-11-22T03:42:29.529Z,3.15
2023-11-22T03:43:29.504Z,3.33
2023-11-22T03:44:29.499Z,3.28
2023-11-22T03:45:29.505Z,3.26
2023-11-22T03:46:29.520Z,3.26
2023-11-22T03:47:29.543Z,3.24
2023-11-22T03:48:29.473Z,3.23
2023-11-22T03:49:29.458Z,3.06
2023-11-22T03:50:29.469Z,2.84
2023-11-22T03:51:29.426Z,3.06
2023-11-22T03:52:29.406Z,2.99
2023-11-22T03:53:29.443Z,2.99
2023-11-22T03:54:29.389Z,3.15
2023-11-22T03:55:29.385Z,2.96
2023-11-22T03:56:29.378Z,3.06
2023-11-22T03:57:29.354Z,3.00
2023-11-22T03:58:29.345Z,3.10
2023-11-22T03:59:29.396Z,3.14
2023-11-22T04:00:29.360Z,3.08
2023-11-22T04:01:29.435Z,3.28
2023-11-22T04:02:29.358Z,3.54
2023-11-22T04:03:29.389Z,3.26
2023-11-22T04:04:29.287Z,3.08
2023-11-22T04:05:29.310Z,2.87
2023-11-22T04:06:29.263Z,2.77
2023-11-22T04:07:29.249Z,2.72
2023-11-22T04:08:29.281Z,2.60
2023-11-22T04:09:29.235Z,2.85
2023-11-22T04:10:29.220Z,2.53
2023-11-22T04:11:29.255Z,2.79
2023-11-22T04:12:29.205Z,2.71
2023-11-22T04:13:29.188Z,2.69
2023-11-22T04:14:29.280Z,2.29
2023-11-22T04:15:29.172Z,2.19
2023-11-22T04:16:29.187Z,2.40
2023-11-22T04:17:29.212Z,2.53
2023-11-22T04:18:29.253Z,2.41
2023-11-22T04:19:29.152Z,2.27
2023-11-22T04:20:29.179Z,2.11
2023-11-22T04:21:29.115Z,2.55
2023-11-22T04:22:29.096Z,2.51
2023-11-22T04:23:29.110Z,2.65
2023-11-22T04:24:35.094Z,2.33
2023-11-22T04:25:29.070Z,2.78
2023-11-22T04:26:29.154Z,2.58
2023-11-22T04:27:29.042Z,2.77
2023-11-22T04:28:29.035Z,3.06
2023-11-22T04:29:29.059Z,2.63
2023-11-22T04:30:29.021Z,2.93
2023-11-22T04:31:29.032Z,2.95
2023-11-22T04:32:29.203Z,2.84
2023-11-22T04:33:29.206Z,2.63
2023-11-22T04:34:29.032Z,3.13
2023-11-22T04:35:29.066Z,3.06
2023-11-22T04:36:28.967Z,2.69
2023-11-22T04:37:29.015Z,2.85
2023-11-22T04:38:28.952Z,3.03
2023-11-22T04:39:28.929Z,2.99
2023-11-22T04:40:28.914Z,2.71
2023-11-22T04:41:28.984Z,2.92
2023-11-22T04:42:28.892Z,2.90
2023-11-22T04:43:28.879Z,2.74
2023-11-22T04:44:28.897Z,2.99
2023-11-22T04:45:28.854Z,2.90
2023-11-22T04:46:28.846Z,2.92
2023-11-22T04:47:28.889Z,3.02
2023-11-22T04:48:28.896Z,3.21
2023-11-22T04:49:28.840Z,3.18
2023-11-22T04:50:28.867Z,3.02
2023-11-22T04:51:28.793Z,3.15
2023-11-22T04:52:31.114Z,3.29
2023-11-22T04:53:28.799Z,3.26
2023-11-22T04:54:28.768Z,3.11
2023-11-22T04:55:28.762Z,3.46
2023-11-22T04:56:28.761Z,3.77
2023-11-22T04:57:28.742Z,3.46
2023-11-22T04:58:28.731Z,3.71
2023-11-22T04:59:28.767Z,3.83
2023-11-22T05:00:28.697Z,3.60
2023-11-22T05:01:28.723Z,3.49
2023-11-22T05:02:28.689Z,3.60
2023-11-22T05:03:28.709Z,3.67
2023-11-22T05:04:28.656Z,3.56
2023-11-22T05:05:28.701Z,3.47
2023-11-22T05:06:28.642Z,3.78
2023-11-22T05:07:28.626Z,3.54
2023-11-22T05:08:28.706Z,3.50
2023-11-22T05:09:28.605Z,3.44
2023-11-22T05:10:28.596Z,3.68
2023-11-22T05:11:28.607Z,3.54
2023-11-22T05:12:28.577Z,3.74
2023-11-22T05:13:28.565Z,3.59
2023-11-22T05:14:28.577Z,3.75
2023-11-22T05:15:28.547Z,3.79
2023-11-22T05:16:28.565Z,3.60
2023-11-22T05:17:28.630Z,3.93
2023-11-22T05:18:28.591Z,4.14
2023-11-22T05:19:28.502Z,4.05
2023-11-22T05:20:28.622Z,4.14
2023-11-22T05:21:28.512Z,3.96
2023-11-22T05:22:28.480Z,3.59
2023-11-22T05:23:28.473Z,4.15
2023-11-22T05:24:28.459Z,3.85
2023-11-22T05:25:28.443Z,3.77
2023-11-22T05:26:28.461Z,3.87
2023-11-22T05:27:28.419Z,4.01
2023-11-22T05:28:28.407Z,3.74
2023-11-22T05:29:35.427Z,3.65
2023-11-22T05:30:29.422Z,3.68
2023-11-22T05:31:28.415Z,3.51
2023-11-22T05:32:28.388Z,3.67
2023-11-22T05:33:28.427Z,3.64
2023-11-22T05:34:28.359Z,3.59
2023-11-22T05:35:28.383Z,3.60
2023-11-22T05:36:28.323Z,3.59
2023-11-22T05:37:28.350Z,3.49
2023-11-22T05:38:28.490Z,3.71
2023-11-22T05:39:28.300Z,3.44
2023-11-22T05:40:28.309Z,3.75
2023-11-22T05:41:28.327Z,3.78
2023-11-22T05:42:28.271Z,3.85
2023-11-22T05:43:28.455Z,3.78
2023-11-22T05:44:34.320Z,3.77
2023-11-22T05:45:28.234Z,3.67
2023-11-22T05:46:28.221Z,3.79
2023-11-22T05:47:28.356Z,3.64
2023-11-22T05:48:28.284Z,3.78
2023-11-22T05:49:28.187Z,3.77
2023-11-22T05:50:28.254Z,3.78
2023-11-22T05:51:28.168Z,3.56
2023-11-22T05:52:28.162Z,3.64
2023-11-22T05:53:28.197Z,3.89
2023-11-22T05:54:28.177Z,3.89
2023-11-22T05:55:28.135Z,3.69
2023-11-22T05:56:28.144Z,3.87
2023-11-22T05:57:28.109Z,3.74
2023-11-22T05:58:28.093Z,3.89
2023-11-22T05:59:28.108Z,3.79
2023-11-22T06:00:28.076Z,3.90
2023-11-22T06:01:28.061Z,3.93
2023-11-22T06:02:28.202Z,3.93
2023-11-22T06:03:28.072Z,3.77
2023-11-22T06:04:34.104Z,3.72
2023-11-22T06:05:28.177Z,3.79
2023-11-22T06:06:28.012Z,4.03
2023-11-22T06:07:28.044Z,3.85
2023-11-22T06:08:28.014Z,4.08
2023-11-22T06:09:28.035Z,3.90
2023-11-22T06:10:27.976Z,3.77
2023-11-22T06:11:27.988Z,3.95
2023-11-22T06:12:27.948Z,3.72
2023-11-22T06:13:27.944Z,3.68
2023-11-22T06:14:27.946Z,3.86
2023-11-22T06:15:30.297Z,3.51
2023-11-22T06:16:27.925Z,3.90
2023-11-22T06:17:27.980Z,3.74
2023-11-22T06:18:27.894Z,3.79
2023-11-22T06:19:27.887Z,3.87
2023-11-22T06:20:27.914Z,3.57
2023-11-22T06:21:27.893Z,3.78
2023-11-22T06:22:27.846Z,3.77
2023-11-22T06:23:27.906Z,3.75
2023-11-22T06:24:27.830Z,3.92
2023-11-22T06:25:27.798Z,3.85
2023-11-22T06:26:27.845Z,4.07
2023-11-22T06:27:27.768Z,4.15
2023-11-22T06:28:27.733Z,4.01
2023-11-22T06:29:27.808Z,4.20
2023-11-22T06:30:27.766Z,4.07
2023-11-22T06:31:27.751Z,4.16
2023-11-22T06:32:27.715Z,4.15
2023-11-22T06:33:27.753Z,4.08
2023-11-22T06:34:27.665Z,4.23
2023-11-22T06:35:27.707Z,4.03
2023-11-22T06:36:27.653Z,3.97
2023-11-22T06:37:27.645Z,4.16
2023-11-22T06:38:27.634Z,4.22
2023-11-22T06:39:27.616Z,4.11
2023-11-22T06:40:27.603Z,3.89
2023-11-22T06:41:27.660Z,4.12
2023-11-22T06:42:27.608Z,4.03
2023-11-22T06:43:27.575Z,3.97
2023-11-22T06:44:27.820Z,4.26
2023-11-22T06:45:27.560Z,4.18
2023-11-22T06:46:27.550Z,4.22
2023-11-22T06:47:27.584Z,4.12
2023-11-22T06:48:27.660Z,3.83
2023-11-22T06:49:27.515Z,4.07
2023-11-22T06:50:27.529Z,3.83
2023-11-22T06:51:27.503Z,4.07
2023-11-22T06:52:27.478Z,4.12
2023-11-22T06:53:27.503Z,3.93
2023-11-22T06:54:27.457Z,4.18
2023-11-22T06:55:27.451Z,4.30
2023-11-22T06:56:27.458Z,4.23
2023-11-22T06:57:27.449Z,4.50
2023-11-22T06:58:27.408Z,4.27
2023-11-22T06:59:27.435Z,4.42
2023-11-22T07:00:27.391Z,4.48
2023-11-22T07:01:27.615Z,4.48
2023-11-22T07:02:27.383Z,4.30
2023-11-22T07:03:27.501Z,4.36
2023-11-22T07:04:27.443Z,4.47
2023-11-22T07:05:27.413Z,4.55
2023-11-22T07:06:27.334Z,4.63
2023-11-22T07:07:27.319Z,4.44
2023-11-22T07:08:27.326Z,4.44
2023-11-22T07:09:27.295Z,4.52
2023-11-22T07:10:27.285Z,4.50
2023-11-22T07:11:27.454Z,4.54
2023-11-22T07:12:27.269Z,4.48
2023-11-22T07:13:27.282Z,4.36
2023-11-22T07:14:27.276Z,4.44
2023-11-22T07:15:27.236Z,4.52
2023-11-22T07:16:27.253Z,4.54
2023-11-22T07:17:27.254Z,4.54
2023-11-22T07:18:27.221Z,4.65
2023-11-22T07:19:27.198Z,4.59
2023-11-22T07:20:27.222Z,4.77
2023-11-22T07:21:27.184Z,4.37
2023-11-22T07:22:27.167Z,4.67
2023-11-22T07:23:27.168Z,4.73
2023-11-22T07:24:27.145Z,4.45
2023-11-22T07:25:27.126Z,4.84
2023-11-22T07:26:27.166Z,4.87
2023-11-22T07:27:33.118Z,4.77
2023-11-22T07:28:27.096Z,4.55
2023-11-22T07:29:27.115Z,4.54
2023-11-22T07:30:27.075Z,4.41
2023-11-22T07:31:27.068Z,4.65
2023-11-22T07:32:27.129Z,4.52
2023-11-22T07:33:27.061Z,4.18
2023-11-22T07:34:27.048Z,4.24
2023-11-22T07:35:27.077Z,4.26
2023-11-22T07:36:27.010Z,4.16
2023-11-22T07:37:27.000Z,4.15
2023-11-22T07:38:27.018Z,4.08
2023-11-22T07:39:26.983Z,4.12
2023-11-22T07:40:26.967Z,3.97
2023-11-22T07:41:26.996Z,3.90
2023-11-22T07:42:26.954Z,3.75
2023-11-22T07:43:26.943Z,4.08
2023-11-22T07:44:26.983Z,3.83
2023-11-22T07:45:26.958Z,3.87
2023-11-22T07:46:26.937Z,4.40
2023-11-22T07:47:26.914Z,4.12
2023-11-22T07:48:26.922Z,4.20
2023-11-22T07:49:26.874Z,4.29
2023-11-22T07:50:26.887Z,4.29
2023-11-22T07:51:26.862Z,4.27
2023-11-22T07:52:26.846Z,4.44
2023-11-22T07:53:26.910Z,4.18
2023-11-22T07:54:26.823Z,4.36
2023-11-22T07:55:26.808Z,4.32
2023-11-22T07:56:26.836Z,4.48
2023-11-22T07:57:26.788Z,4.47
2023-11-22T07:58:26.787Z,4.52
2023-11-22T07:59:26.786Z,4.60
2023-11-22T08:00:26.759Z,4.80
2023-11-22T08:01:26.843Z,5.20
2023-11-22T08:02:26.793Z,5.23
2023-11-22T08:03:26.925Z,5.35
2023-11-22T08:04:26.773Z,5.21
2023-11-22T08:05:26.733Z,5.42
2023-11-22T08:06:26.700Z,5.21
2023-11-22T08:07:26.683Z,5.37
2023-11-22T08:08:26.739Z,5.47
2023-11-22T08:09:26.675Z,5.39
2023-11-22T08:10:26.694Z,5.48
2023-11-22T08:11:26.664Z,5.42
2023-11-22T08:12:26.634Z,5.68
2023-11-22T08:13:26.621Z,5.53
2023-11-22T08:14:26.641Z,5.65
2023-11-22T08:15:26.632Z,6.03
2023-11-22T08:16:26.693Z,5.99
2023-11-22T08:17:26.703Z,6.26
2023-11-22T08:18:26.690Z,6.03
2023-11-22T08:19:26.558Z,6.26
2023-11-22T08:20:26.593Z,7.13
2023-11-22T08:21:26.537Z,7.92
2023-11-22T08:22:26.537Z,8.09
2023-11-22T08:23:26.535Z,8.19
2023-11-22T08:24:26.517Z,8.38
2023-11-22T08:25:26.494Z,9.41
2023-11-22T08:26:26.523Z,10.18
2023-11-22T08:27:26.472Z,10.50
2023-11-22T08:28:26.463Z,10.90
2023-11-22T08:29:26.477Z,11.14
2023-11-22T08:30:26.454Z,10.91
2023-11-22T08:31:26.496Z,11.14
2023-11-22T08:32:26.482Z,10.80
2023-11-22T08:33:26.501Z,11.27
2023-11-22T08:34:26.406Z,11.54
2023-11-22T08:35:26.419Z,11.97
2023-11-22T08:36:26.391Z,12.58
2023-11-22T08:37:26.369Z,12.83
2023-11-22T08:38:26.385Z,12.95
2023-11-22T08:39:26.345Z,13.32
2023-11-22T08:40:26.331Z,13.56
2023-11-22T08:41:26.352Z,13.61
2023-11-22T08:42:26.317Z,13.84
2023-11-22T08:43:26.306Z,14.35
2023-11-22T08:44:26.346Z,14.09
2023-11-22T08:45:26.282Z,13.70
2023-11-22T08:46:26.273Z,14.37
2023-11-22T08:47:26.300Z,14.37
2023-11-22T08:48:26.302Z,14.22
2023-11-22T08:49:26.264Z,14.27
2023-11-22T08:50:26.283Z,15.10
2023-11-22T08:51:26.234Z,14.51
2023-11-22T08:52:26.216Z,14.80
2023-11-22T08:53:26.272Z,14.57
2023-11-22T08:54:26.225Z,15.02
2023-11-22T08:55:26.175Z,14.75
2023-11-22T08:56:26.248Z,14.62
2023-11-22T08:57:26.150Z,14.95
2023-11-22T08:58:26.140Z,15.30
2023-11-22T08:59:26.164Z,15.51
2023-11-22T09:00:26.122Z,15.62
2023-11-22T09:01:26.180Z,15.60
2023-11-22T09:02:26.289Z,15.89
2023-11-22T09:03:26.176Z,15.16
2023-11-22T09:04:26.109Z,15.54
2023-11-22T09:05:26.144Z,15.64
2023-11-22T09:06:26.059Z,15.49
2023-11-22T09:07:26.058Z,16.11
2023-11-22T09:08:28.593Z,15.30
2023-11-22T09:09:26.019Z,13.29
2023-11-22T09:10:26.012Z,11.83
2023-11-22T09:11:26.021Z,10.83
2023-11-22T09:12:25.993Z,9.84
2023-11-22T09:13:26.030Z,9.41
2023-11-22T09:14:25.984Z,8.70
2023-11-22T09:15:25.956Z,8.19
2023-11-22T09:16:26.006Z,8.06
2023-11-22T09:17:25.957Z,7.60
2023-11-22T09:18:25.970Z,7.52
2023-11-22T09:19:25.921Z,7.28
2023-11-22T09:20:25.942Z,7.34
2023-11-22T09:21:25.931Z,8.74
2023-11-22T09:22:25.891Z,10.05
2023-11-22T09:23:25.904Z,10.98
2023-11-22T09:24:25.868Z,12.04
2023-11-22T09:25:25.849Z,12.92
2023-11-22T09:26:25.878Z,12.90
2023-11-22T09:27:25.833Z,11.75
2023-11-22T09:28:25.830Z,10.22
2023-11-22T09:29:27.018Z,9.64
2023-11-22T09:30:25.801Z,9.99
2023-11-22T09:31:25.781Z,10.66
2023-11-22T09:32:25.809Z,9.94
2023-11-22T09:33:25.782Z,9.32
2023-11-22T09:34:25.756Z,8.80
2023-11-22T09:35:25.752Z,9.22
2023-11-22T09:36:25.737Z,11.14
2023-11-22T09:37:25.742Z,12.70
2023-11-22T09:38:25.740Z,13.43
2023-11-22T09:39:25.718Z,14.43
2023-11-22T09:40:25.698Z,15.12
2023-11-22T09:41:25.693Z,15.38
2023-11-22T09:42:25.677Z,15.67
2023-11-22T09:43:25.654Z,14.01
2023-11-22T09:44:25.673Z,13.66
2023-11-22T09:45:25.637Z,14.93
2023-11-22T09:46:25.673Z,15.45
2023-11-22T09:47:25.639Z,15.92
2023-11-22T09:48:25.633Z,16.26
2023-11-22T09:49:25.587Z,16.59
2023-11-22T09:50:25.637Z,16.88
2023-11-22T09:51:25.664Z,17.44
2023-11-22T09:52:26.977Z,17.41
2023-11-22T09:53:25.585Z,17.51
2023-11-22T09:54:25.536Z,17.54
2023-11-22T09:55:25.536Z,16.97
2023-11-22T09:56:25.551Z,16.48
2023-11-22T09:57:25.505Z,16.32
2023-11-22T09:58:25.492Z,16.01
2023-11-22T09:59:25.503Z,16.41
2023-11-22T10:00:25.468Z,17.06
2023-11-22T10:01:25.472Z,17.03
2023-11-22T10:02:25.572Z,16.77
2023-11-22T10:03:25.594Z,17.07
2023-11-22T10:04:25.670Z,17.31
2023-11-22T10:05:25.482Z,17.44
2023-11-22T10:06:25.412Z,16.63
2023-11-22T10:07:25.395Z,16.23
2023-11-22T10:08:25.401Z,15.69
2023-11-22T10:09:25.393Z,16.52
2023-11-22T10:10:25.363Z,16.67
2023-11-22T10:11:25.406Z,16.49
2023-11-22T10:12:25.344Z,16.77
2023-11-22T10:13:25.328Z,16.70
2023-11-22T10:14:25.446Z,16.57
2023-11-22T10:15:25.391Z,16.69
2023-11-22T10:16:25.313Z,16.38
2023-11-22T10:17:25.516Z,16.30
2023-11-22T10:18:25.351Z,15.51
2023-11-22T10:19:25.263Z,15.09
2023-11-22T10:20:25.271Z,15.13
2023-11-22T10:21:25.585Z,15.31
2023-11-22T10:22:25.244Z,15.94
2023-11-22T10:23:25.457Z,15.28
2023-11-22T10:24:25.216Z,14.58
2023-11-22T10:25:25.271Z,13.90
2023-11-22T10:26:25.261Z,14.09
2023-11-22T10:27:25.181Z,14.60
2023-11-22T10:28:25.281Z,14.72
2023-11-22T10:29:25.199Z,14.60
2023-11-22T10:30:25.165Z,14.75
2023-11-22T10:31:25.190Z,15.50
2023-11-22T10:32:25.160Z,16.20
2023-11-22T10:33:25.290Z,16.38
2023-11-22T10:34:25.115Z,16.32
2023-11-22T10:35:25.193Z,16.11
2023-11-22T10:36:25.086Z,15.82
2023-11-22T10:37:25.096Z,16.11
2023-11-22T10:38:25.089Z,16.38
2023-11-22T10:39:25.069Z,16.08
2023-11-22T10:40:25.048Z,16.42
2023-11-22T10:41:25.134Z,16.93
2023-11-22T10:42:25.024Z,16.84
2023-11-22T10:43:25.005Z,15.01
2023-11-22T10:44:25.009Z,15.27
2023-11-22T10:45:25.070Z,15.34
2023-11-22T10:46:25.083Z,15.28
2023-11-22T10:47:24.981Z,15.16
2023-11-22T10:48:24.966Z,14.85
2023-11-22T10:49:24.962Z,15.46
2023-11-22T10:50:24.984Z,14.70
2023-11-22T10:51:24.921Z,14.93
2023-11-22T10:52:24.916Z,15.56
2023-11-22T10:53:24.950Z,14.94
2023-11-22T10:54:24.888Z,14.43
2023-11-22T10:55:24.876Z,14.27
2023-11-22T10:56:24.918Z,13.50
2023-11-22T10:57:24.892Z,12.90
2023-11-22T10:58:30.854Z,12.67
2023-11-22T10:59:24.864Z,12.40
2023-11-22T11:00:24.830Z,12.06
2023-11-22T11:01:24.840Z,11.69
2023-11-22T11:02:24.838Z,11.32
2023-11-22T11:03:31.018Z,10.87
2023-11-22T11:04:24.959Z,10.90
2023-11-22T11:05:24.847Z,11.37
2023-11-22T11:06:24.762Z,12.06
2023-11-22T11:07:24.741Z,11.22
2023-11-22T11:08:24.772Z,10.38
2023-11-22T11:09:24.722Z,10.20
2023-11-22T11:10:25.538Z,9.77
2023-11-22T11:11:24.741Z,9.70
2023-11-22T11:12:24.693Z,9.57
2023-11-22T11:13:24.732Z,9.07
2023-11-22T11:14:24.718Z,9.05
2023-11-22T11:15:24.659Z,9.19
2023-11-22T11:16:24.724Z,9.35
2023-11-22T11:17:24.660Z,9.94
2023-11-22T11:18:24.690Z,10.27
2023-11-22T11:19:24.630Z,10.48
2023-11-22T11:20:24.626Z,10.87
2023-11-22T11:21:24.600Z,10.84
2023-11-22T11:22:24.583Z,11.01
2023-11-22T11:23:24.610Z,11.27
2023-11-22T11:24:24.558Z,11.28
2023-11-22T11:25:24.553Z,11.33
2023-11-22T11:26:24.565Z,10.73
2023-11-22T11:27:24.527Z,10.38
2023-11-22T11:28:24.524Z,9.79
2023-11-22T11:29:24.541Z,9.70
2023-11-22T11:30:24.500Z,9.41
2023-11-22T11:31:24.514Z,9.49
2023-11-22T11:32:24.554Z,9.31
2023-11-22T11:33:24.522Z,9.27
2023-11-22T11:34:24.455Z,8.94
2023-11-22T11:35:24.442Z,9.13
2023-11-22T11:36:24.430Z,8.65
2023-11-22T11:37:24.419Z,8.76
2023-11-22T11:38:24.424Z,8.27
2023-11-22T11:39:24.396Z,8.56
2023-11-22T11:40:24.393Z,8.50
2023-11-22T11:41:24.399Z,8.33
2023-11-22T11:42:25.540Z,8.32
2023-11-22T11:43:24.361Z,8.06
2023-11-22T11:44:24.380Z,8.37
2023-11-22T11:45:24.359Z,8.29
2023-11-22T11:46:24.391Z,7.89
2023-11-22T11:47:24.370Z,8.28
2023-11-22T11:48:24.393Z,8.32
2023-11-22T11:49:24.316Z,8.73
2023-11-22T11:50:24.334Z,8.83
2023-11-22T11:51:24.264Z,8.96
2023-11-22T11:52:24.261Z,9.05
2023-11-22T11:53:24.309Z,8.83
2023-11-22T11:54:24.337Z,9.07
2023-11-22T11:55:24.223Z,8.87
2023-11-22T11:56:24.418Z,8.89
2023-11-22T11:57:24.236Z,8.84
2023-11-22T11:58:24.210Z,9.04
2023-11-22T11:59:24.196Z,9.07
2023-11-22T12:00:24.174Z,8.95
2023-11-22T12:01:24.276Z,8.77
2023-11-22T12:02:24.251Z,8.63
2023-11-22T12:03:24.439Z,8.52
2023-11-22T12:04:24.180Z,8.56
2023-11-22T12:05:24.147Z,8.79
2023-11-22T12:06:24.115Z,8.79
2023-11-22T12:07:24.104Z,8.74
2023-11-22T12:08:24.123Z,8.62
2023-11-22T12:09:24.075Z,8.70
2023-11-22T12:10:24.069Z,8.71
2023-11-22T12:11:24.084Z,8.63
2023-11-22T12:12:24.046Z,8.84
2023-11-22T12:13:24.045Z,8.81
2023-11-22T12:14:24.048Z,8.91
2023-11-22T12:15:24.009Z,8.76
2023-11-22T12:16:24.032Z,8.87
2023-11-22T12:17:24.035Z,8.96
2023-11-22T12:18:24.162Z,9.27
2023-11-22T12:19:24.010Z,9.39
2023-11-22T12:20:23.973Z,9.45
2023-11-22T12:21:23.956Z,9.56
2023-11-22T12:22:23.937Z,9.53
2023-11-22T12:23:23.972Z,9.27
2023-11-22T12:24:23.915Z,9.39
2023-11-22T12:25:23.907Z,9.45
2023-11-22T12:26:23.912Z,9.31
2023-11-22T12:27:23.887Z,9.60
2023-11-22T12:28:26.697Z,9.32
2023-11-22T12:29:23.905Z,9.45
2023-11-22T12:30:23.849Z,9.45
2023-11-22T12:31:23.851Z,9.28
2023-11-22T12:32:23.889Z,9.56
2023-11-22T12:33:23.958Z,9.47
2023-11-22T12:34:23.832Z,9.55
2023-11-22T12:35:23.812Z,9.53
2023-11-22T12:36:23.788Z,9.37
2023-11-22T12:37:23.783Z,9.50
2023-11-22T12:38:23.792Z,9.49
2023-11-22T12:39:23.764Z,9.23
2023-11-22T12:40:29.752Z,9.12
2023-11-22T12:41:23.738Z,9.17
2023-11-22T12:42:23.752Z,9.65
2023-11-22T12:43:23.731Z,9.22
2023-11-22T12:44:23.737Z,9.31
2023-11-22T12:45:23.688Z,9.39
2023-11-22T12:46:23.741Z,9.16
2023-11-22T12:47:23.694Z,8.96
2023-11-22T12:48:23.784Z,9.02
2023-11-22T12:49:23.672Z,8.89
2023-11-22T12:50:23.656Z,8.77
2023-11-22T12:51:23.633Z,8.71
2023-11-22T12:52:23.615Z,9.09
2023-11-22T12:53:23.739Z,8.95
2023-11-22T12:54:23.610Z,8.91
2023-11-22T12:55:23.585Z,9.13
2023-11-22T12:56:23.619Z,8.89
2023-11-22T12:57:23.583Z,8.98
2023-11-22T12:58:23.557Z,8.89
2023-11-22T12:59:23.553Z,8.63
2023-11-22T13:00:23.583Z,8.74
2023-11-22T13:01:23.528Z,8.77
2023-11-22T13:02:23.648Z,8.91
2023-11-22T13:03:23.631Z,8.96
2023-11-22T13:04:23.701Z,8.91
2023-11-22T13:05:23.710Z,8.95
2023-11-22T13:06:23.571Z,8.66
2023-11-22T13:07:23.451Z,8.74
2023-11-22T13:08:23.471Z,9.10
2023-11-22T13:09:23.429Z,9.14
2023-11-22T13:10:23.424Z,9.10
2023-11-22T13:11:23.459Z,9.14
2023-11-22T13:12:23.436Z,9.13
2023-11-22T13:13:23.439Z,9.14